createdAt,value
2019-02-17T00:01:46.180Z,3.10
2019-02-17T00:04:18.971Z,3.12
2019-02-17T00:06:52.109Z,3.19
2019-02-17T00:09:25.644Z,3.26
2019-02-17T00:11:58.266Z,3.37
2019-02-17T00:14:36.078Z,3.47
2019-02-17T00:17:08.521Z,3.52
2019-02-17T00:19:42.650Z,3.50
2019-02-17T00:22:15.440Z,3.44
2019-02-17T00:24:48.993Z,3.33
2019-02-17T00:27:21.599Z,3.21
2019-02-17T00:29:54.525Z,3.14
2019-02-17T00:32:27.188Z,3.20
2019-02-17T00:34:59.962Z,3.38
2019-02-17T00:37:32.950Z,3.53
2019-02-17T00:40:06.096Z,3.59
2019-02-17T00:42:39.531Z,3.81
2019-02-17T00:45:15.506Z,4.04
2019-02-17T00:47:48.190Z,4.20
2019-02-17T00:50:22.010Z,4.30
2019-02-17T00:52:55.970Z,4.36
2019-02-17T00:55:29.197Z,4.46
2019-02-17T00:58:03.184Z,4.45
2019-02-17T01:00:36.018Z,4.42
2019-02-17T01:03:08.582Z,4.45
2019-02-17T01:05:45.678Z,4.40
2019-02-17T01:08:18.790Z,4.31
2019-02-17T01:10:51.272Z,4.23
2019-02-17T01:13:29.790Z,4.15
2019-02-17T01:16:02.883Z,4.11
2019-02-17T01:18:35.503Z,4.07
2019-02-17T01:21:11.150Z,3.99
2019-02-17T01:23:43.927Z,3.99
2019-02-17T01:26:17.058Z,4.03
2019-02-17T01:28:50.178Z,4.00
2019-02-17T01:31:22.749Z,4.08
2019-02-17T01:33:56.131Z,4.03
2019-02-17T01:36:28.623Z,3.99
2019-02-17T01:39:07.398Z,4.00
2019-02-17T01:41:39.973Z,4.08
2019-02-17T01:44:12.614Z,4.02
2019-02-17T01:46:45.744Z,4.00
2019-02-17T01:49:18.314Z,4.10
2019-02-17T01:51:51.841Z,4.03
2019-02-17T01:54:28.035Z,4.14
2019-02-17T01:57:00.984Z,4.10
2019-02-17T01:59:33.562Z,4.12
2019-02-17T02:02:08.077Z,4.12
2019-02-17T02:04:40.458Z,4.40
2019-02-17T02:07:14.059Z,4.56
2019-02-17T02:09:47.636Z,4.48
2019-02-17T02:12:20.150Z,4.32
2019-02-17T02:14:52.912Z,4.17
2019-02-17T02:17:30.489Z,4.02
2019-02-17T02:20:12.767Z,3.92
2019-02-17T02:22:50.545Z,3.94
2019-02-17T02:25:34.909Z,3.91
2019-02-17T02:28:15.706Z,3.88
2019-02-17T02:31:01.366Z,3.91
2019-02-17T02:33:40.650Z,3.86
2019-02-17T02:36:26.704Z,3.86
2019-02-17T02:40:50.342Z,4.38
2019-02-17T02:43:23.286Z,4.66
2019-02-17T02:45:55.694Z,4.78
2019-02-17T02:48:30.246Z,4.89
2019-02-17T02:51:03.237Z,4.87
2019-02-17T02:53:35.885Z,4.83
2019-02-17T02:56:08.315Z,4.84
2019-02-17T02:58:41.164Z,4.75
2019-02-17T03:01:13.795Z,4.71
2019-02-17T03:03:46.315Z,4.60
2019-02-17T03:06:28.238Z,4.50
2019-02-17T03:09:01.362Z,4.35
2019-02-17T03:11:33.677Z,4.18
2019-02-17T03:14:06.650Z,4.06
2019-02-17T03:16:39.246Z,3.92
2019-02-17T03:19:12.430Z,3.80
2019-02-17T03:21:45.334Z,3.73
2019-02-17T03:24:18.173Z,3.53
2019-02-17T03:26:50.834Z,3.35
2019-02-17T03:29:23.702Z,3.22
2019-02-17T03:31:56.271Z,3.14
2019-02-17T03:34:29.039Z,3.08
2019-02-17T03:37:01.843Z,2.98
2019-02-17T03:39:34.467Z,2.91
2019-02-17T03:42:07.001Z,2.95
2019-02-17T03:44:39.783Z,2.95
2019-02-17T03:47:12.389Z,2.86
2019-02-17T03:49:44.946Z,2.74
2019-02-17T03:52:18.130Z,2.71
2019-02-17T03:54:50.770Z,2.83
2019-02-17T03:57:23.781Z,2.98
2019-02-17T03:59:56.773Z,3.05
2019-02-17T04:02:29.270Z,3.04
2019-02-17T04:05:01.855Z,3.14
2019-02-17T04:07:36.498Z,3.15
2019-02-17T04:10:09.063Z,3.17
2019-02-17T04:12:41.589Z,3.27
2019-02-17T04:15:15.795Z,3.37
2019-02-17T04:17:49.229Z,3.45
2019-02-17T04:20:21.884Z,3.53
2019-02-17T04:22:54.773Z,3.62
2019-02-17T04:25:27.362Z,3.79
2019-02-17T04:28:00.728Z,3.89
2019-02-17T04:30:33.807Z,4.00
2019-02-17T04:33:06.898Z,4.12
2019-02-17T04:35:39.311Z,4.18
2019-02-17T04:38:12.576Z,4.30
2019-02-17T04:40:45.097Z,4.36
2019-02-17T04:43:17.689Z,4.41
2019-02-17T04:45:50.390Z,4.47
2019-02-17T04:48:23.015Z,4.51
2019-02-17T04:51:01.697Z,4.46
2019-02-17T04:53:34.156Z,4.43
2019-02-17T04:56:07.232Z,4.47
2019-02-17T04:58:39.885Z,4.45
2019-02-17T05:01:12.434Z,4.46
2019-02-17T05:03:45.937Z,4.45
2019-02-17T05:06:18.463Z,4.48
2019-02-17T05:08:51.234Z,4.43
2019-02-17T05:11:24.207Z,4.39
2019-02-17T05:13:56.961Z,4.38
2019-02-17T05:16:29.607Z,4.56
2019-02-17T05:19:03.722Z,4.66
2019-02-17T05:21:36.359Z,4.67
2019-02-17T05:24:08.998Z,4.60
2019-02-17T05:26:50.480Z,4.72
2019-02-17T05:29:25.124Z,4.92
2019-02-17T05:31:58.580Z,4.93
2019-02-17T05:34:32.441Z,4.90
2019-02-17T05:37:05.073Z,4.97
2019-02-17T05:39:38.393Z,4.94
2019-02-17T05:42:11.154Z,4.80
2019-02-17T05:44:44.160Z,4.73
2019-02-17T05:47:16.686Z,4.74
2019-02-17T05:49:49.594Z,4.89
2019-02-17T05:52:22.070Z,5.01
2019-02-17T05:54:55.146Z,5.04
2019-02-17T05:57:28.254Z,4.97
2019-02-17T06:00:00.789Z,4.78
2019-02-17T06:02:34.788Z,4.70
2019-02-17T06:05:08.395Z,4.76
2019-02-17T06:07:42.205Z,4.77
2019-02-17T06:10:15.518Z,4.79
2019-02-17T06:12:48.610Z,4.74
2019-02-17T06:15:21.384Z,4.74
2019-02-17T06:17:54.868Z,4.74
2019-02-17T06:20:27.913Z,4.66
2019-02-17T06:23:00.784Z,4.59
2019-02-17T06:25:33.461Z,4.62
2019-02-17T06:28:06.579Z,4.70
2019-02-17T06:30:39.211Z,4.66
2019-02-17T06:33:11.881Z,4.67
2019-02-17T06:35:46.135Z,4.69
2019-02-17T06:38:18.857Z,4.65
2019-02-17T06:40:52.372Z,4.65
2019-02-17T06:43:26.129Z,4.64
2019-02-17T06:45:59.090Z,4.75
2019-02-17T06:48:32.850Z,4.86
2019-02-17T06:51:06.203Z,4.95
2019-02-17T06:53:39.475Z,5.08
2019-02-17T06:56:23.317Z,5.26
2019-02-17T06:58:55.997Z,5.55
2019-02-17T07:01:28.752Z,5.72
2019-02-17T07:04:01.621Z,5.89
2019-02-17T07:06:39.445Z,6.02
2019-02-17T07:09:11.967Z,6.22
2019-02-17T07:11:47.387Z,6.42
2019-02-17T07:14:20.910Z,6.57
2019-02-17T07:16:55.266Z,6.71
2019-02-17T07:19:33.163Z,6.93
2019-02-17T07:22:10.587Z,7.02
2019-02-17T07:24:48.113Z,7.13
2019-02-17T07:27:28.800Z,7.25
2019-02-17T07:30:07.527Z,7.33
2019-02-17T07:32:44.930Z,7.38
2019-02-17T07:35:22.848Z,7.40
2019-02-17T07:38:00.282Z,7.48
2019-02-17T07:40:37.655Z,7.53
2019-02-17T07:43:15.497Z,7.55
2019-02-17T07:45:54.169Z,7.54
2019-02-17T07:48:26.750Z,7.56
2019-02-17T07:51:00.445Z,7.67
2019-02-17T07:53:33.986Z,7.77
2019-02-17T07:56:09.654Z,7.80
2019-02-17T07:58:44.335Z,7.81
2019-02-17T08:01:17.754Z,7.88
2019-02-17T08:03:50.455Z,8.01
2019-02-17T08:06:23.711Z,8.08
2019-02-17T08:08:57.064Z,8.20
2019-02-17T08:11:29.602Z,8.35
2019-02-17T08:14:03.404Z,8.43
2019-02-17T08:16:36.010Z,8.52
2019-02-17T08:19:09.175Z,8.61
2019-02-17T08:21:43.255Z,8.69
2019-02-17T08:24:15.900Z,8.76
2019-02-17T08:26:48.367Z,8.88
2019-02-17T08:29:22.367Z,8.97
2019-02-17T08:31:56.212Z,9.09
2019-02-17T08:34:31.819Z,9.17
2019-02-17T08:37:04.641Z,9.28
2019-02-17T08:39:37.182Z,9.47
2019-02-17T08:42:09.741Z,9.57
2019-02-17T08:44:42.682Z,9.66
2019-02-17T08:47:16.630Z,9.78
2019-02-17T08:49:53.892Z,9.85
2019-02-17T08:52:32.786Z,9.97
2019-02-17T08:55:07.946Z,10.05
2019-02-17T08:57:41.709Z,10.13
2019-02-17T09:00:17.685Z,10.23
2019-02-17T09:02:54.487Z,10.36
2019-02-17T09:05:29.706Z,10.53
2019-02-17T09:08:04.004Z,10.65
2019-02-17T09:10:37.667Z,10.79
2019-02-17T09:13:12.711Z,10.89
2019-02-17T09:15:47.030Z,10.96
2019-02-17T09:18:21.335Z,11.07
2019-02-17T09:20:54.478Z,11.14
2019-02-17T09:23:28.421Z,11.24
2019-02-17T09:26:01.133Z,11.33
2019-02-17T09:28:36.272Z,11.44
2019-02-17T09:31:14.286Z,11.51
2019-02-17T09:33:47.039Z,11.60
2019-02-17T09:36:21.226Z,11.72
2019-02-17T09:38:53.870Z,12.05
2019-02-17T09:41:27.468Z,12.63
2019-02-17T09:44:09.955Z,13.18
2019-02-17T09:46:46.250Z,13.62
2019-02-17T09:49:18.888Z,13.85
2019-02-17T09:51:51.518Z,14.05
2019-02-17T09:54:25.151Z,14.22
2019-02-17T09:56:57.835Z,14.35
2019-02-17T09:59:32.633Z,14.38
2019-02-17T10:02:06.261Z,14.30
2019-02-17T10:04:41.433Z,14.27
2019-02-17T10:07:20.812Z,14.31
2019-02-17T10:09:53.408Z,14.40
2019-02-17T10:12:28.834Z,14.44
2019-02-17T10:15:04.597Z,14.49
2019-02-17T10:17:39.799Z,14.59
2019-02-17T10:20:15.999Z,14.78
2019-02-17T10:22:48.776Z,14.85
2019-02-17T10:25:22.209Z,14.96
2019-02-17T10:27:55.427Z,15.10
2019-02-17T10:30:28.557Z,15.16
2019-02-17T10:33:02.759Z,15.23
2019-02-17T10:35:37.853Z,15.16
2019-02-17T10:38:11.015Z,15.18
2019-02-17T10:40:43.619Z,15.45
2019-02-17T10:43:16.269Z,15.70
2019-02-17T10:45:51.687Z,15.71
2019-02-17T10:48:28.589Z,15.64
2019-02-17T10:51:07.680Z,15.46
2019-02-17T10:53:50.137Z,15.33
2019-02-17T10:56:23.898Z,15.15
2019-02-17T10:58:57.875Z,15.04
2019-02-17T11:01:32.108Z,15.02
2019-02-17T11:04:10.545Z,15.10
2019-02-17T11:06:45.869Z,15.15
2019-02-17T11:09:26.184Z,15.20
2019-02-17T11:11:59.062Z,15.27
2019-02-17T11:14:34.375Z,15.34
2019-02-17T11:17:11.940Z,15.40
2019-02-17T11:19:46.909Z,15.58
2019-02-17T11:22:23.384Z,15.64
2019-02-17T11:24:57.789Z,15.94
2019-02-17T11:27:32.542Z,16.50
2019-02-17T11:30:17.479Z,16.99
2019-02-17T11:32:57.525Z,17.47
2019-02-17T11:35:33.547Z,18.00
2019-02-17T11:38:08.219Z,18.18
2019-02-17T11:40:42.451Z,18.26
2019-02-17T11:43:17.395Z,18.33
2019-02-17T11:45:51.378Z,18.41
2019-02-17T11:48:24.523Z,18.60
2019-02-17T11:51:00.357Z,18.80
2019-02-17T11:53:33.259Z,18.87
2019-02-17T11:56:12.991Z,18.84
2019-02-17T11:58:47.537Z,18.66
2019-02-17T12:01:21.850Z,18.44
2019-02-17T12:03:56.677Z,18.45
2019-02-17T12:06:34.254Z,18.40
2019-02-17T12:09:07.999Z,18.37
2019-02-17T12:11:42.590Z,18.44
2019-02-17T12:14:16.387Z,18.66
2019-02-17T12:16:53.189Z,18.46
2019-02-17T12:19:26.613Z,18.29
2019-02-17T12:22:08.006Z,18.41
2019-02-17T12:24:52.039Z,18.52
2019-02-17T12:27:33.123Z,18.69
2019-02-17T12:30:12.968Z,18.74
2019-02-17T12:32:45.954Z,18.74
2019-02-17T12:35:19.014Z,18.80
2019-02-17T12:37:51.950Z,18.83
2019-02-17T12:40:25.775Z,19.01
2019-02-17T12:43:00.185Z,19.04
2019-02-17T12:45:32.819Z,18.87
2019-02-17T12:48:11.072Z,18.85
2019-02-17T12:50:47.106Z,18.86
2019-02-17T12:53:20.037Z,18.83
2019-02-17T12:55:54.424Z,18.87
2019-02-17T12:58:30.239Z,18.71
2019-02-17T13:01:03.353Z,18.75
2019-02-17T13:03:40.074Z,18.71
2019-02-17T13:06:14.347Z,18.75
2019-02-17T13:08:48.606Z,19.12
2019-02-17T13:11:24.050Z,19.37
2019-02-17T13:13:58.133Z,19.40
2019-02-17T13:16:30.716Z,19.31
2019-02-17T13:19:05.255Z,19.16
2019-02-17T13:21:38.962Z,19.03
2019-02-17T13:24:11.642Z,19.08
2019-02-17T13:26:47.308Z,18.99
2019-02-17T13:29:23.002Z,18.99
2019-02-17T13:31:57.384Z,18.97
2019-02-17T13:34:31.375Z,19.01
2019-02-17T13:37:05.081Z,19.01
2019-02-17T13:39:37.659Z,19.03
2019-02-17T13:42:11.325Z,19.14
2019-02-17T13:44:45.711Z,19.34
2019-02-17T13:47:18.828Z,19.49
2019-02-17T13:49:52.570Z,19.69
2019-02-17T13:52:31.934Z,19.98
2019-02-17T13:55:05.321Z,20.06
2019-02-17T13:57:39.133Z,20.01
2019-02-17T14:00:15.612Z,20.07
2019-02-17T14:02:50.501Z,20.26
2019-02-17T14:05:23.778Z,20.40
2019-02-17T14:08:01.060Z,20.35
2019-02-17T14:10:33.729Z,20.37
2019-02-17T14:13:07.210Z,20.49
2019-02-17T14:15:40.912Z,20.58
2019-02-17T14:18:13.514Z,20.57
2019-02-17T14:20:47.106Z,20.29
2019-02-17T14:23:19.644Z,20.33
2019-02-17T14:25:53.123Z,20.36
2019-02-17T14:28:26.688Z,20.41
2019-02-17T14:31:00.755Z,20.59
2019-02-17T14:33:58.365Z,20.72
2019-02-17T14:36:33.991Z,20.82
2019-02-17T14:39:08.624Z,20.91
2019-02-17T14:41:44.821Z,20.74
2019-02-17T14:44:17.552Z,20.69
2019-02-17T14:46:50.351Z,20.72
2019-02-17T14:49:22.931Z,20.74
2019-02-17T14:51:56.191Z,20.67
2019-02-17T14:54:29.771Z,20.72
2019-02-17T14:57:02.501Z,20.77
2019-02-17T14:59:36.720Z,20.76
2019-02-17T15:02:09.359Z,20.91
2019-02-17T15:04:42.566Z,20.96
2019-02-17T15:07:15.762Z,20.88
2019-02-17T15:09:49.739Z,20.78
2019-02-17T15:12:24.364Z,20.71
2019-02-17T15:14:56.932Z,20.72
2019-02-17T15:17:31.722Z,20.74
2019-02-17T15:20:09.431Z,20.76
2019-02-17T15:22:48.555Z,20.78
2019-02-17T15:25:24.838Z,20.75
2019-02-17T15:27:57.584Z,20.75
2019-02-17T15:30:30.776Z,20.74
2019-02-17T15:33:06.738Z,20.55
2019-02-17T15:35:41.099Z,20.29
2019-02-17T15:38:15.967Z,19.99
2019-02-17T15:40:48.698Z,19.90
2019-02-17T15:43:22.137Z,19.89
2019-02-17T15:45:56.934Z,19.93
2019-02-17T15:48:30.567Z,19.99
2019-02-17T15:51:06.577Z,20.09
2019-02-17T15:53:40.020Z,20.14
2019-02-17T15:56:12.558Z,20.06
2019-02-17T15:58:46.383Z,19.84
2019-02-17T16:01:18.983Z,19.66
2019-02-17T16:03:51.856Z,19.42
2019-02-17T16:06:26.331Z,19.08
2019-02-17T16:09:00.515Z,18.80
2019-02-17T16:11:36.380Z,18.64
2019-02-17T16:14:10.006Z,18.44
2019-02-17T16:16:45.622Z,18.25
2019-02-17T16:19:21.932Z,17.99
2019-02-17T16:21:56.616Z,17.81
2019-02-17T16:24:30.885Z,17.57
2019-02-17T16:27:04.180Z,17.40
2019-02-17T16:29:37.691Z,17.18
2019-02-17T16:32:12.588Z,17.00
2019-02-17T16:34:47.482Z,16.77
2019-02-17T16:37:21.526Z,16.56
2019-02-17T16:39:55.230Z,16.40
2019-02-17T16:42:28.920Z,16.20
2019-02-17T16:45:26.179Z,15.99
2019-02-17T16:47:59.075Z,15.74
2019-02-17T16:50:33.683Z,15.55
2019-02-17T16:53:13.369Z,15.39
2019-02-17T16:55:48.949Z,15.19
2019-02-17T16:58:21.647Z,15.00
2019-02-17T17:00:56.267Z,14.83
2019-02-17T17:03:29.727Z,14.67
2019-02-17T17:06:05.833Z,14.55
2019-02-17T17:08:38.807Z,14.41
2019-02-17T17:11:17.885Z,14.27
2019-02-17T17:13:51.526Z,14.17
2019-02-17T17:16:27.292Z,14.07
2019-02-17T17:19:03.337Z,13.97
2019-02-17T17:21:36.970Z,13.88
2019-02-17T17:24:10.740Z,13.85
2019-02-17T17:26:45.624Z,13.83
2019-02-17T17:29:21.640Z,13.82
2019-02-17T17:31:55.730Z,13.81
2019-02-17T17:34:30.877Z,13.76
2019-02-17T17:37:05.746Z,13.60
2019-02-17T17:39:38.349Z,13.49
2019-02-17T17:42:16.659Z,13.47
2019-02-17T17:44:50.294Z,13.48
2019-02-17T17:47:24.267Z,13.44
2019-02-17T17:49:57.663Z,13.30
2019-02-17T17:52:31.397Z,13.29
2019-02-17T17:55:05.559Z,13.25
2019-02-17T17:57:44.572Z,13.17
2019-02-17T18:00:23.473Z,13.11
2019-02-17T18:02:57.093Z,13.05
2019-02-17T18:05:31.087Z,13.02
2019-02-17T18:08:04.231Z,13.04
2019-02-17T18:10:40.698Z,13.00
2019-02-17T18:13:14.104Z,12.98
2019-02-17T18:15:48.702Z,12.97
2019-02-17T18:18:24.812Z,12.89
2019-02-17T18:20:59.840Z,12.88
2019-02-17T18:23:42.262Z,12.87
2019-02-17T18:26:17.616Z,12.84
2019-02-17T18:28:51.703Z,12.79
2019-02-17T18:31:26.941Z,12.74
2019-02-17T18:34:00.011Z,12.73
2019-02-17T18:36:33.224Z,12.75
2019-02-17T18:39:10.945Z,12.69
2019-02-17T18:41:45.234Z,12.59
2019-02-17T18:44:22.862Z,12.52
2019-02-17T18:47:02.993Z,12.44
2019-02-17T18:49:37.630Z,12.38
2019-02-17T18:52:11.696Z,12.32
2019-02-17T18:54:45.221Z,12.38
2019-02-17T18:57:19.785Z,12.37
2019-02-17T18:59:54.501Z,12.38
2019-02-17T19:02:30.439Z,12.33
2019-02-17T19:05:05.317Z,12.27
2019-02-17T19:07:38.501Z,12.27
2019-02-17T19:10:13.380Z,12.26
2019-02-17T19:12:46.899Z,12.23
2019-02-17T19:15:33.278Z,12.20
2019-02-17T19:18:06.814Z,12.17
2019-02-17T19:20:41.160Z,12.19
2019-02-17T19:23:17.487Z,12.15
2019-02-17T19:25:53.737Z,12.13
2019-02-17T19:28:29.055Z,12.08
2019-02-17T19:31:02.479Z,12.09
2019-02-17T19:33:35.903Z,12.01
2019-02-17T19:36:13.012Z,11.96
2019-02-17T19:38:49.374Z,11.85
2019-02-17T19:41:31.437Z,11.77
2019-02-17T19:44:13.339Z,11.74
2019-02-17T19:46:50.708Z,11.71
2019-02-17T19:49:28.887Z,11.70
2019-02-17T19:52:14.137Z,11.66
2019-02-17T19:54:58.368Z,11.66
2019-02-17T19:57:40.608Z,11.57
2019-02-17T20:00:22.506Z,11.60
2019-02-17T20:03:15.836Z,11.65
2019-02-17T20:05:56.207Z,11.66
2019-02-17T20:08:36.354Z,11.64
2019-02-17T20:11:18.187Z,11.63
2019-02-17T20:14:01.804Z,11.53
2019-02-17T20:16:41.716Z,11.53
2019-02-17T20:19:22.636Z,11.59
2019-02-17T20:22:14.298Z,11.52
2019-02-17T20:24:51.839Z,11.43
2019-02-17T20:27:31.375Z,11.38
2019-02-17T20:30:14.667Z,11.36
2019-02-17T20:32:50.820Z,11.30
2019-02-17T20:35:34.583Z,11.22
2019-02-17T20:38:21.218Z,11.16
2019-02-17T20:41:27.065Z,11.12
2019-02-17T20:44:40.569Z,11.09
2019-02-17T20:47:41.803Z,11.03
2019-02-17T20:51:04.572Z,10.93
2019-02-17T20:53:48.507Z,10.95
2019-02-17T20:56:28.346Z,10.94
2019-02-17T20:59:22.010Z,10.92
2019-02-17T21:02:08.207Z,10.88
2019-02-17T21:04:47.524Z,10.91
2019-02-17T21:07:29.785Z,10.90
2019-02-17T21:10:08.997Z,10.93
2019-02-17T21:12:45.060Z,10.86
2019-02-17T21:15:26.103Z,10.81
2019-02-17T21:18:05.907Z,10.86
2019-02-17T21:20:47.885Z,10.91
2019-02-17T21:23:27.341Z,10.94
2019-02-17T21:26:05.368Z,10.89
2019-02-17T21:28:39.633Z,10.80
2019-02-17T21:31:12.915Z,10.82
2019-02-17T21:33:47.556Z,10.88
2019-02-17T21:36:23.171Z,10.91
2019-02-17T21:39:00.148Z,10.94
2019-02-17T21:41:33.366Z,10.94
2019-02-17T21:44:08.671Z,10.90
2019-02-17T21:46:43.096Z,10.94
2019-02-17T21:49:16.639Z,11.00
2019-02-17T21:51:52.723Z,10.95
2019-02-17T21:54:28.878Z,10.94
2019-02-17T21:57:02.601Z,11.01
2019-02-17T21:59:37.854Z,11.04
2019-02-17T22:02:12.397Z,11.00
2019-02-17T22:04:46.397Z,10.99
2019-02-17T22:07:23.242Z,10.96
2019-02-17T22:10:00.694Z,10.91
2019-02-17T22:12:36.708Z,10.92
2019-02-17T22:15:18.176Z,10.94
2019-02-17T22:17:53.728Z,10.99
2019-02-17T22:20:28.955Z,11.05
2019-02-17T22:23:02.661Z,11.08
2019-02-17T22:25:41.877Z,11.12
2019-02-17T22:28:16.412Z,11.12
2019-02-17T22:30:49.056Z,11.07
2019-02-17T22:33:22.232Z,10.99
2019-02-17T22:36:12.005Z,10.88
2019-02-17T22:38:46.724Z,10.81
2019-02-17T22:41:21.799Z,10.75
2019-02-17T22:43:55.270Z,10.67
2019-02-17T22:46:28.112Z,10.58
2019-02-17T22:49:00.586Z,10.51
2019-02-17T22:51:34.423Z,10.48
2019-02-17T22:54:07.040Z,10.45
2019-02-17T22:56:39.542Z,10.48
2019-02-17T22:59:13.503Z,10.50
2019-02-17T23:01:48.182Z,10.56
2019-02-17T23:04:25.552Z,10.61
2019-02-17T23:06:59.970Z,10.64
2019-02-17T23:09:32.462Z,10.60
2019-02-17T23:12:05.694Z,10.52
2019-02-17T23:14:42.250Z,10.46
2019-02-17T23:17:14.956Z,10.39
2019-02-17T23:19:49.986Z,10.31
2019-02-17T23:22:25.808Z,10.23
2019-02-17T23:25:01.208Z,10.23
2019-02-17T23:27:33.974Z,10.14
2019-02-17T23:30:08.783Z,10.12
2019-02-17T23:32:42.254Z,10.07
2019-02-17T23:35:17.670Z,9.99
2019-02-17T23:37:50.298Z,9.93
2019-02-17T23:40:24.411Z,9.91
2019-02-17T23:42:58.535Z,9.94
2019-02-17T23:45:31.410Z,9.93
2019-02-17T23:48:05.573Z,9.98
2019-02-17T23:50:39.726Z,10.01
2019-02-17T23:53:13.715Z,10.00
2019-02-17T23:55:47.306Z,9.95
2019-02-17T23:58:23.538Z,9.98
